Time;durP1;ratioP1;P1;durP2;ratioP2;P2;SDS_P1;SDS_P2;PMS_P1;PMS_P2;Temp;Humidity;BMP_temperature;BMP_pressure;BME280_temperature;BME280_humidity;BME280_pressure;Samples;Min_cycle;Max_cycle;Signal;HPM_P1;HPM_P2
2021/10/20 00:00:38;;;;;;;7.97;4.88;;;15.50;99.90;;;;;;5041380;28;20342;-50
2021/10/20 00:03:06;;;;;;;5.85;5.28;;;15.30;99.90;;;;;;5049335;28;20215;-53
2021/10/20 00:05:34;;;;;;;5.30;4.57;;;15.30;99.90;;;;;;5054916;28;20205;-53
2021/10/20 00:08:06;;;;;;;7.78;4.97;;;15.40;99.90;;;;;;5058327;28;20544;-50
2021/10/20 00:10:35;;;;;;;5.50;5.00;;;15.30;99.90;;;;;;5051666;28;20246;-53
2021/10/20 00:13:04;;;;;;;6.45;5.78;;;15.40;99.90;;;;;;5045580;28;20541;-53
2021/10/20 00:15:32;;;;;;;6.20;5.63;;;15.30;99.90;;;;;;5051342;28;20223;-55
2021/10/20 00:18:00;;;;;;;5.07;4.68;;;15.20;99.90;;;;;;5060120;28;20263;-51
2021/10/20 00:20:27;;;;;;;4.97;4.47;;;15.20;99.90;;;;;;5056161;28;20204;-53
2021/10/20 00:22:55;;;;;;;6.05;5.55;;;15.10;99.90;;;;;;5041406;28;20219;-51
2021/10/20 00:25:27;;;;;;;7.03;5.03;;;15.10;99.90;;;;;;5047583;28;20204;-50
2021/10/20 00:27:55;;;;;;;4.78;4.38;;;15.10;99.90;;;;;;5054235;28;20256;-52
2021/10/20 00:30:22;;;;;;;5.20;4.57;;;15.20;99.90;;;;;;5046382;28;20204;-49
2021/10/20 00:32:50;;;;;;;5.90;5.30;;;15.20;99.90;;;;;;5052445;28;20232;-50
2021/10/20 00:35:17;;;;;;;6.65;6.00;;;15.20;99.90;;;;;;5050524;28;20231;-49
2021/10/20 00:37:44;;;;;;;6.40;5.80;;;15.20;99.90;;;;;;5055629;28;20200;-48
2021/10/20 00:40:13;;;;;;;5.90;5.40;;;15.10;99.90;;;;;;5060373;28;20199;-51
2021/10/20 00:42:42;;;;;;;5.90;5.43;;;15.10;99.90;;;;;;5053769;28;20209;-50
2021/10/20 00:45:10;;;;;;;5.45;4.88;;;15.10;99.90;;;;;;5056712;28;20242;-50
2021/10/20 00:47:38;;;;;;;6.18;5.68;;;15.10;99.90;;;;;;5060654;28;20362;-49
2021/10/20 00:50:09;;;;;;;6.80;6.15;;;15.20;99.90;;;;;;5057405;28;20512;-52
2021/10/20 00:52:37;;;;;;;6.45;5.82;;;15.30;99.90;;;;;;5053644;28;20206;-51
2021/10/20 00:55:05;;;;;;;5.63;4.32;;;15.50;99.90;;;;;;5051346;28;20232;-48
2021/10/20 00:57:34;;;;;;;6.43;5.75;;;15.60;99.90;;;;;;5059537;28;20201;-53
2021/10/20 01:00:05;;;;;;;5.13;4.72;;;15.60;99.90;;;;;;5042373;28;20444;-50
2021/10/20 01:02:33;;;;;;;5.95;5.50;;;15.60;99.90;;;;;;5049736;28;20242;-53
2021/10/20 01:05:00;;;;;;;5.25;4.85;;;15.60;99.90;;;;;;5058747;28;20450;-54
2021/10/20 01:07:27;;;;;;;4.63;4.22;;;15.50;99.90;;;;;;5045048;28;20204;-53
2021/10/20 01:09:55;;;;;;;5.20;4.72;;;15.30;99.90;;;;;;5044035;28;20212;-52
2021/10/20 01:12:22;;;;;;;7.20;5.72;;;15.30;99.90;;;;;;5058345;28;20205;-51
2021/10/20 01:14:50;;;;;;;4.60;4.20;;;15.30;99.90;;;;;;5052108;28;20568;-52
2021/10/20 01:17:18;;;;;;;5.00;4.25;;;15.40;99.90;;;;;;5042612;28;20196;-51
2021/10/20 01:19:45;;;;;;;5.35;4.82;;;15.30;99.90;;;;;;5054466;28;20250;-53
2021/10/20 01:22:13;;;;;;;5.38;4.35;;;15.40;99.90;;;;;;5048336;28;20216;-54
2021/10/20 01:24:40;;;;;;;5.10;4.13;;;15.40;99.90;;;;;;5048091;28;20550;-50
2021/10/20 01:27:08;;;;;;;4.90;4.47;;;15.30;99.90;;;;;;5049493;28;20204;-54
2021/10/20 01:29:36;;;;;;;4.78;4.15;;;15.30;99.90;;;;;;5045731;28;20243;-53
2021/10/20 01:32:07;;;;;;;4.80;4.40;;;15.50;99.90;;;;;;5051602;28;20495;-55
2021/10/20 01:34:35;;;;;;;4.43;4.13;;;15.60;99.90;;;;;;5057512;23;20352;-47
2021/10/20 01:37:04;;;;;;;4.30;3.90;;;15.60;99.90;;;;;;5036517;28;20259;-44
2021/10/20 01:39:33;;;;;;;4.68;4.30;;;15.60;99.90;;;;;;5038470;28;20240;-44
2021/10/20 01:42:01;;;;;;;4.82;4.47;;;15.70;99.90;;;;;;5039574;28;20202;-43
2021/10/20 01:44:29;;;;;;;5.80;4.47;;;15.60;99.90;;;;;;5052657;28;20278;-46
2021/10/20 01:46:57;;;;;;;6.93;3.72;;;15.70;99.90;;;;;;5059006;28;20205;-46
2021/10/20 01:49:25;;;;;;;4.25;3.85;;;15.60;99.90;;;;;;5055135;28;20259;-47
2021/10/20 01:51:52;;;;;;;4.30;3.90;;;15.40;99.90;;;;;;5056955;28;20212;-45
2021/10/20 01:54:20;;;;;;;3.85;3.42;;;15.30;99.90;;;;;;5039153;28;20441;-44
2021/10/20 01:56:47;;;;;;;3.45;3.20;;;15.40;99.90;;;;;;5041410;28;20219;-48
2021/10/20 01:59:15;;;;;;;4.80;3.70;;;15.50;99.90;;;;;;5058980;28;20228;-40
2021/10/20 02:01:43;;;;;;;3.40;3.20;;;15.60;99.90;;;;;;5060170;28;20252;-50
2021/10/20 02:04:12;;;;;;;4.07;3.45;;;15.80;99.90;;;;;;5062025;28;20217;-45
2021/10/20 02:06:43;;;;;;;4.20;3.90;;;15.90;99.90;;;;;;5062060;28;20249;-44
2021/10/20 02:09:11;;;;;;;4.00;3.53;;;15.80;99.90;;;;;;5062910;28;20426;-48
2021/10/20 02:11:41;;;;;;;6.43;3.60;;;15.80;99.90;;;;;;5063135;28;20205;-49
2021/10/20 02:14:10;;;;;;;3.73;3.40;;;15.70;99.90;;;;;;5060178;28;20453;-46
2021/10/20 02:16:38;;;;;;;3.87;3.40;;;15.80;99.90;;;;;;5042242;28;20473;-44
2021/10/20 02:19:05;;;;;;;3.30;3.00;;;16.00;99.90;;;;;;5057848;28;20445;-46
2021/10/20 02:21:32;;;;;;;3.35;3.05;;;16.20;99.90;;;;;;5062767;28;20435;-45
2021/10/20 02:24:00;;;;;;;4.00;3.67;;;16.20;99.90;;;;;;5061831;28;20224;-48
2021/10/20 02:26:27;;;;;;;4.77;4.40;;;16.30;99.90;;;;;;5056223;28;20488;-46
2021/10/20 02:28:54;;;;;;;5.00;3.87;;;16.40;99.90;;;;;;5062176;28;20500;-50
2021/10/20 02:31:21;;;;;;;4.70;3.60;;;16.10;99.90;;;;;;5062613;28;20441;-47
2021/10/20 02:33:48;;;;;;;4.25;3.85;;;15.80;99.90;;;;;;5054693;28;20769;-45
2021/10/20 02:36:16;;;;;;;3.72;3.42;;;15.70;99.90;;;;;;5050780;28;20224;-51
2021/10/20 02:38:43;;;;;;;5.28;4.07;;;15.70;99.90;;;;;;5062337;28;20201;-48
2021/10/20 02:41:11;;;;;;;4.25;3.85;;;15.70;99.90;;;;;;5060025;28;20204;-48
2021/10/20 02:43:39;;;;;;;4.63;4.22;;;15.70;99.90;;;;;;5044507;28;20392;-48
2021/10/20 02:46:07;;;;;;;4.43;4.07;;;15.50;99.90;;;;;;5045820;28;20209;-47
2021/10/20 02:48:34;;;;;;;3.55;3.25;;;15.60;99.90;;;;;;5054850;28;20464;-46
2021/10/20 02:51:02;;;;;;;4.22;3.92;;;15.50;99.90;;;;;;5049360;28;20465;-44
2021/10/20 02:53:29;;;;;;;3.70;3.40;;;15.40;99.90;;;;;;5047590;28;20534;-48
2021/10/20 02:55:56;;;;;;;3.80;3.47;;;15.10;99.90;;;;;;5052870;28;20221;-44
2021/10/20 02:58:23;;;;;;;3.47;3.22;;;15.10;99.90;;;;;;5061693;28;20503;-47
2021/10/20 03:00:51;;;;;;;4.28;3.88;;;14.80;99.90;;;;;;5061863;28;20236;-46
2021/10/20 03:03:18;;;;;;;4.47;4.05;;;14.60;99.90;;;;;;5051414;28;20439;-48
2021/10/20 03:05:45;;;;;;;3.15;2.95;;;14.30;99.90;;;;;;5054273;28;20434;-44
2021/10/20 03:08:13;;;;;;;5.15;4.70;;;14.20;99.90;;;;;;5041332;28;20204;-49
2021/10/20 03:10:40;;;;;;;4.28;3.88;;;14.10;99.90;;;;;;5047458;28;20214;-45
2021/10/20 03:13:10;;;;;;;4.93;4.45;;;13.90;99.90;;;;;;5050179;28;20208;-45
2021/10/20 03:15:38;;;;;;;5.03;4.70;;;14.00;99.90;;;;;;5057695;28;20239;-44
2021/10/20 03:18:05;;;;;;;4.50;4.10;;;14.10;99.90;;;;;;5061504;28;20510;-44
2021/10/20 03:20:32;;;;;;;4.40;3.95;;;14.10;99.90;;;;;;5057455;28;20223;-42
2021/10/20 03:22:59;;;;;;;4.60;4.20;;;14.00;99.90;;;;;;5051774;28;20199;-45
2021/10/20 03:25:27;;;;;;;3.80;3.47;;;13.90;99.90;;;;;;5052292;28;20225;-47
2021/10/20 03:27:54;;;;;;;5.40;4.82;;;13.90;99.90;;;;;;5058516;28;20261;-47
2021/10/20 03:30:23;;;;;;;6.40;5.60;;;13.90;99.90;;;;;;5050459;28;20199;-45
2021/10/20 03:32:50;;;;;;;5.70;5.10;;;13.70;99.90;;;;;;5051390;28;20204;-49
2021/10/20 03:35:19;;;;;;;4.75;4.35;;;13.70;99.90;;;;;;5060981;28;20223;-49
2021/10/20 03:37:46;;;;;;;5.00;4.50;;;13.70;99.90;;;;;;5060326;28;20429;-47
2021/10/20 03:40:14;;;;;;;6.32;5.75;;;13.70;99.90;;;;;;5056283;28;20248;-49
2021/10/20 03:42:43;;;;;;;5.95;5.30;;;13.70;99.90;;;;;;5060168;28;20204;-49
2021/10/20 03:45:10;;;;;;;6.28;5.20;;;13.80;99.90;;;;;;5048035;28;20227;-48
2021/10/20 03:47:37;;;;;;;6.07;5.47;;;13.70;99.90;;;;;;5054874;28;20438;-44
2021/10/20 03:50:06;;;;;;;5.68;5.20;;;13.70;99.90;;;;;;5059756;28;20428;-46
2021/10/20 03:52:33;;;;;;;6.40;5.68;;;13.50;99.90;;;;;;5061004;28;20429;-46
2021/10/20 03:55:02;;;;;;;7.20;6.50;;;13.50;99.90;;;;;;5060240;28;20239;-44
2021/10/20 03:57:36;;;;;;;6.78;5.68;;;13.60;99.90;;;;;;5058087;28;20199;-45
2021/10/20 04:00:07;;;;;;;6.53;5.97;;;13.50;99.90;;;;;;5059246;28;20216;-44
2021/10/20 04:02:34;;;;;;;7.00;6.30;;;13.50;99.90;;;;;;5050681;28;20230;-47
2021/10/20 04:05:02;;;;;;;7.63;6.90;;;13.60;99.90;;;;;;5059312;28;20219;-47
2021/10/20 04:07:29;;;;;;;8.57;6.72;;;13.50;99.90;;;;;;5047354;28;20211;-50
2021/10/20 04:09:56;;;;;;;7.35;6.65;;;13.60;99.90;;;;;;5055338;28;20207;-51
2021/10/20 04:12:24;;;;;;;7.40;6.63;;;13.50;99.90;;;;;;5060639;28;20204;-46
2021/10/20 04:14:51;;;;;;;8.20;7.40;;;13.40;99.90;;;;;;5049960;28;20228;-44
2021/10/20 04:17:18;;;;;;;10.68;7.10;;;13.40;99.90;;;;;;5057244;28;20199;-44
2021/10/20 04:19:45;;;;;;;8.20;7.03;;;13.30;99.90;;;;;;5059748;28;20623;-44
2021/10/20 04:22:12;;;;;;;8.80;7.95;;;13.30;99.90;;;;;;5056820;28;20506;-44
2021/10/20 04:24:39;;;;;;;10.20;7.13;;;13.30;99.90;;;;;;5053790;28;20219;-46
2021/10/20 04:27:07;;;;;;;8.77;7.80;;;13.30;99.90;;;;;;5050640;28;20204;-42
2021/10/20 04:29:34;;;;;;;8.23;6.85;;;13.30;99.90;;;;;;5054417;28;20203;-51
2021/10/20 04:32:02;;;;;;;9.80;7.93;;;13.40;99.90;;;;;;5053644;28;20207;-44
2021/10/20 04:34:29;;;;;;;11.77;7.90;;;13.40;99.90;;;;;;5060845;28;20499;-50
2021/10/20 04:36:56;;;;;;;7.63;6.95;;;13.30;99.90;;;;;;5047339;28;20232;-47
2021/10/20 04:39:23;;;;;;;9.40;7.22;;;13.30;99.90;;;;;;5056862;28;20390;-50
2021/10/20 04:41:51;;;;;;;8.73;7.95;;;13.20;99.90;;;;;;5045208;28;20633;-44
2021/10/20 04:44:18;;;;;;;9.05;7.38;;;13.30;99.90;;;;;;5055457;28;20219;-46
2021/10/20 04:46:45;;;;;;;7.75;7.00;;;13.30;99.90;;;;;;5052449;28;20453;-46
2021/10/20 04:49:12;;;;;;;10.40;8.65;;;13.40;99.90;;;;;;5059590;28;20203;-48
2021/10/20 04:51:40;;;;;;;8.50;7.63;;;13.30;99.90;;;;;;5059330;28;20207;-47
2021/10/20 04:54:07;;;;;;;8.52;7.65;;;13.50;99.90;;;;;;5059794;28;20262;-45
2021/10/20 04:56:35;;;;;;;8.10;7.30;;;13.60;99.90;;;;;;5050100;28;20226;-49
2021/10/20 04:59:01;;;;;;;6.43;5.80;;;13.40;99.90;;;;;;5055566;28;20200;-47
2021/10/20 05:01:29;;;;;;;8.40;6.63;;;13.40;99.90;;;;;;5057280;28;20200;-49
2021/10/20 05:03:56;;;;;;;9.88;7.68;;;13.30;99.90;;;;;;5064255;28;20283;-44
2021/10/20 05:06:23;;;;;;;6.90;6.15;;;13.30;99.90;;;;;;5058984;28;20221;-48
2021/10/20 05:08:50;;;;;;;7.25;6.65;;;13.30;99.90;;;;;;5051784;28;20224;-47
2021/10/20 05:11:18;;;;;;;6.38;5.80;;;13.30;99.90;;;;;;5057065;28;20254;-48
2021/10/20 05:13:45;;;;;;;7.55;6.55;;;13.30;99.90;;;;;;5059307;28;20257;-48
2021/10/20 05:16:12;;;;;;;7.10;6.43;;;13.30;99.90;;;;;;5045435;28;20277;-47
2021/10/20 05:18:39;;;;;;;6.55;5.63;;;13.40;99.90;;;;;;5053007;28;20206;-44
2021/10/20 05:21:07;;;;;;;10.55;6.25;;;13.40;99.90;;;;;;5050164;28;20330;-50
2021/10/20 05:23:34;;;;;;;4.85;4.50;;;13.40;99.90;;;;;;5042557;28;20278;-46
2021/10/20 05:26:01;;;;;;;9.75;5.45;;;13.40;99.90;;;;;;5058563;28;20433;-44
2021/10/20 05:28:29;;;;;;;5.85;4.18;;;13.40;99.90;;;;;;5053214;28;20241;-52
2021/10/20 05:30:56;;;;;;;6.07;5.55;;;13.60;99.90;;;;;;5045563;28;20218;-45
2021/10/20 05:33:23;;;;;;;9.32;6.15;;;13.70;99.90;;;;;;5047499;28;20239;-45
2021/10/20 05:35:51;;;;;;;7.10;6.40;;;13.80;99.90;;;;;;5044961;28;20291;-48
2021/10/20 05:38:18;;;;;;;6.57;5.85;;;13.90;99.90;;;;;;5044866;28;20507;-44
2021/10/20 05:40:46;;;;;;;6.35;5.32;;;13.90;99.90;;;;;;5059567;28;20267;-45
2021/10/20 05:43:13;;;;;;;6.60;6.00;;;13.90;99.90;;;;;;5062638;28;20223;-44
2021/10/20 05:45:40;;;;;;;5.90;5.25;;;13.70;99.90;;;;;;5061808;28;20203;-48
2021/10/20 05:48:08;;;;;;;7.47;5.50;;;13.70;99.90;;;;;;5053232;28;20379;-43
2021/10/20 05:50:35;;;;;;;6.75;5.65;;;13.70;99.90;;;;;;5057345;28;20426;-48
2021/10/20 05:53:07;;;;;;;7.75;5.95;;;13.70;99.90;;;;;;5053700;28;20199;-44
2021/10/20 05:55:37;;;;;;;7.00;4.60;;;13.70;99.90;;;;;;5057630;28;20249;-44
2021/10/20 05:58:05;;;;;;;6.38;5.35;;;13.80;99.90;;;;;;5061843;28;20199;-45
2021/10/20 06:00:32;;;;;;;6.20;5.63;;;13.90;99.90;;;;;;5056693;28;20218;-47
2021/10/20 06:02:59;;;;;;;7.40;6.60;;;13.70;99.90;;;;;;5049473;28;20222;-46
2021/10/20 06:05:26;;;;;;;5.07;4.68;;;13.70;99.90;;;;;;5053607;28;20199;-43
2021/10/20 06:07:54;;;;;;;6.60;4.95;;;13.70;99.90;;;;;;5058455;28;20196;-46
2021/10/20 06:10:21;;;;;;;6.68;5.03;;;13.70;99.90;;;;;;5062577;28;20278;-48
2021/10/20 06:12:48;;;;;;;6.60;5.75;;;13.90;99.90;;;;;;5055922;28;20261;-44
2021/10/20 06:15:16;;;;;;;6.03;5.40;;;13.90;99.90;;;;;;5043025;28;20458;-45
2021/10/20 06:18:02;;;;;;;4.75;4.07;;;14.00;99.90;;;;;;5051033;28;20196;-48
2021/10/20 06:20:30;;;;;;;7.03;4.68;;;14.00;99.90;;;;;;5062558;28;20210;-48
2021/10/20 06:22:57;;;;;;;5.20;4.30;;;14.10;99.90;;;;;;5062513;28;20200;-47
2021/10/20 06:25:25;;;;;;;5.53;4.72;;;14.30;99.90;;;;;;5062768;28;20556;-44
2021/10/20 06:27:52;;;;;;;5.35;4.90;;;14.30;99.90;;;;;;5062019;28;20233;-49
2021/10/20 06:30:19;;;;;;;4.97;4.55;;;14.50;99.90;;;;;;5062479;28;20245;-46
2021/10/20 06:32:46;;;;;;;6.68;5.55;;;14.60;99.90;;;;;;5061635;28;20237;-49
2021/10/20 06:35:14;;;;;;;6.25;4.90;;;14.50;99.90;;;;;;5059642;28;20283;-44
2021/10/20 06:37:47;;;;;;;5.10;4.50;;;14.60;99.90;;;;;;5055992;28;20691;-44
2021/10/20 06:40:14;;;;;;;5.15;4.45;;;14.60;99.90;;;;;;5052194;28;20203;-46
2021/10/20 06:42:42;;;;;;;5.88;5.10;;;14.60;99.90;;;;;;5062047;28;20359;-44
2021/10/20 06:45:09;;;;;;;5.25;4.75;;;14.70;99.90;;;;;;5049321;28;20526;-48
2021/10/20 06:47:37;;;;;;;4.72;4.32;;;14.90;99.90;;;;;;5049717;28;20208;-43
2021/10/20 06:50:05;;;;;;;6.55;4.43;;;15.00;99.90;;;;;;5057104;28;20209;-44
2021/10/20 06:52:32;;;;;;;4.40;4.00;;;15.10;99.90;;;;;;5049300;28;20226;-48
2021/10/20 06:55:00;;;;;;;4.95;3.65;;;15.20;99.90;;;;;;5046940;28;20223;-50
2021/10/20 06:57:27;;;;;;;4.88;4.38;;;15.40;99.90;;;;;;5062069;28;20555;-46
2021/10/20 06:59:54;;;;;;;4.82;3.33;;;15.50;99.90;;;;;;5061459;28;20196;-44
2021/10/20 07:02:21;;;;;;;8.60;5.03;;;15.70;99.90;;;;;;5051025;28;20254;-44
2021/10/20 07:04:49;;;;;;;7.55;4.38;;;15.90;99.90;;;;;;5061648;28;20237;-46
2021/10/20 07:07:16;;;;;;;4.30;3.90;;;16.10;99.90;;;;;;5061803;28;20211;-46
2021/10/20 07:09:44;;;;;;;4.70;3.60;;;16.20;99.90;;;;;;5056954;28;20205;-48
2021/10/20 07:12:10;;;;;;;5.77;3.20;;;16.20;99.90;;;;;;5059425;28;20209;-44
2021/10/20 07:14:38;;;;;;;4.20;3.63;;;16.30;99.90;;;;;;5041339;28;20459;-47
2021/10/20 07:17:08;;;;;;;3.60;3.13;;;16.60;99.90;;;;;;5056559;28;20551;-49
2021/10/20 07:19:38;;;;;;;4.07;3.77;;;16.80;99.90;;;;;;5055915;28;20624;-49
2021/10/20 07:22:07;;;;;;;4.07;3.10;;;16.90;99.90;;;;;;5041558;28;20814;-48
2021/10/20 07:24:35;;;;;;;6.87;3.77;;;17.10;99.90;;;;;;5047623;28;20524;-48
2021/10/20 07:27:04;;;;;;;4.90;3.00;;;17.30;99.90;;;;;;5061152;28;20453;-45
2021/10/20 07:29:31;;;;;;;5.40;3.67;;;17.60;99.90;;;;;;5047566;28;20447;-47
2021/10/20 07:31:59;;;;;;;2.70;2.50;;;18.00;99.90;;;;;;5053079;28;20673;-43
2021/10/20 07:34:26;;;;;;;4.17;3.50;;;18.40;99.90;;;;;;5060833;28;20684;-49
2021/10/20 07:36:55;;;;;;;2.83;2.63;;;18.70;99.90;;;;;;5052541;28;20840;-47
2021/10/20 07:39:23;;;;;;;3.03;2.77;;;18.90;99.90;;;;;;5047302;28;20484;-48
2021/10/20 07:41:50;;;;;;;3.43;2.80;;;18.90;99.90;;;;;;5053830;28;20647;-45
2021/10/20 07:44:17;;;;;;;3.67;3.37;;;19.00;99.90;;;;;;5050297;28;20870;-44
2021/10/20 07:46:45;;;;;;;3.17;2.87;;;19.20;99.90;;;;;;5052887;28;20630;-46
2021/10/20 07:49:13;;;;;;;3.63;3.33;;;19.30;99.90;;;;;;5044829;28;20440;-46
2021/10/20 07:51:41;;;;;;;3.60;3.37;;;19.30;99.90;;;;;;5060727;28;20440;-50
2021/10/20 07:54:08;;;;;;;3.43;3.20;;;19.40;99.90;;;;;;5053951;28;20485;-44
2021/10/20 07:56:42;;;;;;;3.53;3.10;;;19.50;99.90;;;;;;5049850;28;20454;-45
2021/10/20 07:59:09;;;;;;;6.80;3.63;;;19.70;99.90;;;;;;5049305;28;20464;-43
2021/10/20 08:01:37;;;;;;;4.00;3.70;;;19.80;99.90;;;;;;5058360;28;20443;-49
2021/10/20 08:04:04;;;;;;;3.70;3.40;;;19.90;99.90;;;;;;5052328;28;20861;-43
2021/10/20 08:06:32;;;;;;;3.80;3.50;;;20.20;99.90;;;;;;5060817;28;20442;-48
2021/10/20 08:08:59;;;;;;;4.10;3.80;;;20.40;99.90;;;;;;5059723;28;20461;-45
2021/10/20 08:11:26;;;;;;;3.57;3.27;;;20.70;99.90;;;;;;5053042;28;20419;-44
2021/10/20 08:13:53;;;;;;;6.33;4.40;;;20.80;99.90;;;;;;5060225;28;20527;-46
2021/10/20 08:16:21;;;;;;;4.17;3.87;;;21.00;99.90;;;;;;5057191;28;20511;-45
2021/10/20 08:18:48;;;;;;;4.30;3.90;;;21.10;99.90;;;;;;5060175;28;20483;-45
2021/10/20 08:21:16;;;;;;;3.80;3.50;;;21.20;99.90;;;;;;5057054;28;20483;-49
2021/10/20 08:23:44;;;;;;;4.67;4.30;;;21.00;99.90;;;;;;5053394;28;20607;-43
2021/10/20 08:26:11;;;;;;;4.80;4.50;;;20.90;99.90;;;;;;5044428;28;20436;-44
2021/10/20 08:28:39;;;;;;;5.17;4.77;;;21.00;99.90;;;;;;5045811;28;20462;-45
2021/10/20 08:31:06;;;;;;;5.23;4.77;;;21.10;99.90;;;;;;5050383;28;20437;-43
2021/10/20 08:33:33;;;;;;;4.73;4.43;;;20.90;99.90;;;;;;5040221;28;20444;-45
2021/10/20 08:36:00;;;;;;;4.20;4.00;;;21.20;99.90;;;;;;5056899;28;20606;-45
2021/10/20 08:38:27;;;;;;;4.50;4.10;;;21.30;99.90;;;;;;5051660;28;20438;-45
2021/10/20 08:40:55;;;;;;;6.07;4.60;;;21.40;99.90;;;;;;5047009;28;20729;-45
2021/10/20 08:43:23;;;;;;;12.83;3.83;;;21.50;99.90;;;;;;5047078;28;20465;-45
2021/10/20 08:45:50;;;;;;;4.50;4.10;;;21.40;99.90;;;;;;5060060;28;20780;-48
2021/10/20 08:48:21;;;;;;;4.60;4.23;;;21.30;99.90;;;;;;5053962;28;20499;-50
2021/10/20 08:50:56;;;;;;;4.73;3.63;;;21.20;99.90;;;;;;5044840;28;20425;-49
2021/10/20 08:53:23;;;;;;;7.07;4.50;;;21.20;99.90;;;;;;5055537;28;20508;-44
2021/10/20 08:55:51;;;;;;;5.67;4.20;;;21.40;99.90;;;;;;5044434;28;20421;-45
2021/10/20 08:58:20;;;;;;;3.80;3.60;;;21.80;99.90;;;;;;5050288;28;20448;-47
2021/10/20 09:00:47;;;;;;;4.90;4.23;;;21.90;99.90;;;;;;5059907;28;20595;-46
2021/10/20 09:03:15;;;;;;;4.40;4.20;;;21.90;99.90;;;;;;5059483;28;20445;-46
2021/10/20 09:05:43;;;;;;;3.97;3.70;;;22.00;99.90;;;;;;5053817;28;20418;-48
2021/10/20 09:08:10;;;;;;;4.43;3.87;;;22.00;99.90;;;;;;5059399;28;20430;-45
2021/10/20 09:10:37;;;;;;;4.00;3.80;;;21.70;99.90;;;;;;5059582;28;20463;-45
2021/10/20 09:13:05;;;;;;;4.63;4.33;;;21.50;99.90;;;;;;5057825;28;20616;-50
2021/10/20 09:15:34;;;;;;;4.77;4.50;;;21.20;99.90;;;;;;5041590;28;20411;-52
2021/10/20 09:18:12;;;;;;;4.33;4.13;;;21.00;99.90;;;;;;5058155;28;20539;-46
2021/10/20 09:20:46;;;;;;;4.50;4.30;;;21.00;99.90;;;;;;5043344;28;20442;-49
2021/10/20 09:23:19;;;;;;;4.50;4.17;;;21.20;99.90;;;;;;5050714;28;20478;-45
2021/10/20 09:25:58;;;;;;;4.60;4.30;;;21.40;99.90;;;;;;5045729;28;20640;-48
2021/10/20 09:28:33;;;;;;;4.33;4.03;;;21.40;99.90;;;;;;5049690;28;20413;-49
2021/10/20 09:31:23;;;;;;;3.90;3.70;;;21.60;99.90;;;;;;5051801;28;20596;-46
2021/10/20 09:33:51;;;;;;;4.73;4.43;;;21.70;99.90;;;;;;5054839;28;20763;-43
2021/10/20 09:36:22;;;;;;;4.80;4.40;;;21.70;99.90;;;;;;5059070;28;20604;-52
2021/10/20 09:38:53;;;;;;;5.77;5.27;;;21.70;99.90;;;;;;5052619;28;20416;-49
2021/10/20 09:41:25;;;;;;;5.03;4.70;;;21.50;99.90;;;;;;5058938;28;20674;-46
2021/10/20 09:43:56;;;;;;;9.40;4.93;;;21.50;99.90;;;;;;5059474;28;20503;-50
2021/10/20 09:46:33;;;;;;;6.53;5.90;;;21.70;99.90;;;;;;5044034;28;20413;-48
2021/10/20 09:49:22;;;;;;;4.90;4.47;;;21.70;99.90;;;;;;5049791;28;20438;-49
2021/10/20 09:51:56;;;;;;;4.20;4.00;;;21.50;99.90;;;;;;5045954;28;20454;-48
2021/10/20 09:54:34;;;;;;;4.73;4.43;;;21.40;99.90;;;;;;5041507;28;20477;-46
2021/10/20 09:57:03;;;;;;;5.30;4.90;;;21.30;99.90;;;;;;5047570;28;20833;-49
2021/10/20 09:59:31;;;;;;;5.43;5.03;;;21.30;99.90;;;;;;5045947;28;20417;-45
2021/10/20 10:01:59;;;;;;;4.27;4.07;;;21.40;99.90;;;;;;5045109;28;20406;-46
2021/10/20 10:04:29;;;;;;;4.43;3.90;;;21.40;99.90;;;;;;5052161;28;20463;-51
2021/10/20 10:06:56;;;;;;;4.80;4.50;;;21.30;99.90;;;;;;5060186;28;20798;-45
2021/10/20 10:09:26;;;;;;;4.03;3.83;;;21.30;99.90;;;;;;5060327;28;20450;-50
2021/10/20 10:12:07;;;;;;;4.03;3.83;;;21.40;99.90;;;;;;5054374;28;20438;-46
2021/10/20 10:14:50;;;;;;;4.17;3.97;;;21.40;99.90;;;;;;5059893;28;20431;-44
2021/10/20 10:17:33;;;;;;;4.37;4.07;;;21.40;99.90;;;;;;5059403;28;20475;-50
2021/10/20 10:20:06;;;;;;;5.63;5.23;;;21.40;99.90;;;;;;5049678;28;20453;-46
2021/10/20 10:22:33;;;;;;;5.33;4.87;;;21.40;99.90;;;;;;5058441;28;20633;-50
2021/10/20 10:25:07;;;;;;;5.23;4.93;;;21.40;99.90;;;;;;5044873;28;20473;-49
2021/10/20 10:27:35;;;;;;;6.10;5.50;;;21.40;99.90;;;;;;5056923;28;20718;-47
2021/10/20 10:30:17;;;;;;;5.07;4.67;;;21.50;99.90;;;;;;5052375;28;20497;-44
2021/10/20 10:32:53;;;;;;;5.43;5.03;;;21.50;99.90;;;;;;5051924;28;20433;-43
2021/10/20 10:35:25;;;;;;;5.80;4.30;;;21.50;99.90;;;;;;5057997;28;20426;-45
2021/10/20 10:38:02;;;;;;;5.50;5.20;;;21.40;99.90;;;;;;5059762;28;20481;-47
2021/10/20 10:40:32;;;;;;;6.73;5.90;;;21.50;99.90;;;;;;5049051;28;20412;-49
2021/10/20 10:43:05;;;;;;;5.70;5.20;;;21.60;99.90;;;;;;5042399;28;20758;-45
2021/10/20 10:45:33;;;;;;;8.80;4.70;;;21.50;99.90;;;;;;5057885;28;20417;-46
2021/10/20 10:48:02;;;;;;;4.50;4.20;;;21.60;99.90;;;;;;5061470;28;20409;-55
2021/10/20 10:50:49;;;;;;;4.67;4.43;;;21.60;99.90;;;;;;5059030;28;20442;-51
2021/10/20 10:53:38;;;;;;;6.87;5.60;;;21.60;99.90;;;;;;5061032;28;20436;-48
2021/10/20 10:56:12;;;;;;;4.67;4.37;;;21.60;99.90;;;;;;5049547;28;20779;-46
2021/10/20 10:59:08;;;;;;;5.83;5.53;;;21.60;99.90;;;;;;5051539;28;20825;-52
2021/10/20 11:01:44;;;;;;;6.40;5.20;;;21.80;99.90;;;;;;5051981;28;20411;-49
2021/10/20 11:04:26;;;;;;;23.17;5.50;;;22.00;99.90;;;;;;5055731;28;20449;-49
2021/10/20 11:06:55;;;;;;;5.00;4.70;;;22.00;99.80;;;;;;5054803;28;20444;-50
2021/10/20 11:09:31;;;;;;;5.07;4.87;;;21.90;99.50;;;;;;5053817;28;20457;-46
2021/10/20 11:11:59;;;;;;;5.10;4.77;;;21.80;99.70;;;;;;5054557;28;20592;-48
2021/10/20 11:14:28;;;;;;;5.30;4.80;;;21.80;99.90;;;;;;5048231;28;20789;-42
2021/10/20 11:17:04;;;;;;;4.13;3.93;;;21.90;99.90;;;;;;5058521;28;20535;-50
2021/10/20 11:19:33;;;;;;;4.37;4.10;;;22.00;99.90;;;;;;5054180;28;20446;-46
2021/10/20 11:22:03;;;;;;;4.40;4.00;;;22.00;99.90;;;;;;5051922;28;20615;-48
2021/10/20 11:24:45;;;;;;;5.33;4.93;;;22.10;99.90;;;;;;5061037;28;20464;-50
2021/10/20 11:27:13;;;;;;;4.90;4.50;;;22.30;99.80;;;;;;5050202;28;20441;-51
2021/10/20 11:29:43;;;;;;;4.30;3.90;;;22.30;99.50;;;;;;5047995;28;20413;-52
2021/10/20 11:32:12;;;;;;;5.40;4.90;;;22.30;99.10;;;;;;5051190;28;20413;-46
2021/10/20 11:34:43;;;;;;;5.67;5.17;;;22.30;98.80;;;;;;5058155;28;20777;-45
2021/10/20 11:37:11;;;;;;;4.13;3.93;;;22.50;99.20;;;;;;5060920;28;20482;-47
2021/10/20 11:39:49;;;;;;;5.03;4.60;;;22.70;98.60;;;;;;5056395;28;20412;-47
2021/10/20 11:42:16;;;;;;;5.50;4.10;;;22.70;99.70;;;;;;5052670;28;20445;-41
2021/10/20 11:44:43;;;;;;;4.40;4.20;;;22.60;98.80;;;;;;5050166;28;20450;-51
2021/10/20 11:47:17;;;;;;;5.13;4.83;;;22.80;99.00;;;;;;5061024;28;20486;-45
2021/10/20 11:49:48;;;;;;;10.77;5.67;;;22.70;99.20;;;;;;5060892;28;20447;-43
2021/10/20 11:52:17;;;;;;;4.20;4.00;;;22.40;99.90;;;;;;5051537;28;20414;-48
2021/10/20 11:54:49;;;;;;;5.27;4.70;;;22.30;99.90;;;;;;5057454;28;20473;-51
2021/10/20 11:57:17;;;;;;;7.43;5.07;;;22.30;99.60;;;;;;5060265;28;20515;-41
2021/10/20 11:59:48;;;;;;;4.80;4.50;;;22.30;99.90;;;;;;5044846;28;20539;-48
2021/10/20 12:02:16;;;;;;;5.00;4.23;;;22.30;99.50;;;;;;5049248;28;20445;-49
2021/10/20 12:04:45;;;;;;;5.70;5.20;;;22.30;99.80;;;;;;5046056;28;20457;-42
2021/10/20 12:07:16;;;;;;;6.00;5.37;;;22.40;99.50;;;;;;5057884;28;20411;-45
2021/10/20 12:09:45;;;;;;;6.43;5.10;;;22.40;99.60;;;;;;5054263;28;20423;-50
2021/10/20 12:12:16;;;;;;;5.60;5.13;;;22.40;99.90;;;;;;5056772;28;20735;-42
2021/10/20 12:14:45;;;;;;;7.80;5.57;;;22.20;99.90;;;;;;5052326;28;20423;-48
2021/10/20 12:17:14;;;;;;;6.30;5.00;;;22.10;99.90;;;;;;5052202;28;20714;-47
2021/10/20 12:19:43;;;;;;;5.87;5.13;;;22.10;99.90;;;;;;5048741;28;20523;-43
2021/10/20 12:22:14;;;;;;;7.43;5.80;;;22.00;99.90;;;;;;5054849;28;20486;-46
2021/10/20 12:24:48;;;;;;;4.97;4.67;;;22.10;99.90;;;;;;5049413;28;20458;-50
2021/10/20 12:27:18;;;;;;;6.70;5.23;;;22.10;99.90;;;;;;5049797;28;20414;-49
2021/10/20 12:29:56;;;;;;;5.17;4.87;;;22.20;99.90;;;;;;5049999;28;20460;-51
2021/10/20 12:32:26;;;;;;;4.53;4.33;;;22.40;99.90;;;;;;5051520;28;20440;-44
2021/10/20 12:34:58;;;;;;;5.57;5.07;;;22.50;99.90;;;;;;5050600;28;20548;-46
2021/10/20 12:37:37;;;;;;;4.87;4.53;;;22.70;99.90;;;;;;5051980;28;20896;-47
2021/10/20 12:40:12;;;;;;;5.47;4.97;;;22.70;99.20;;;;;;5048931;28;20593;-45
2021/10/20 12:42:51;;;;;;;8.80;5.77;;;22.50;99.60;;;;;;5059604;22;20931;-53
2021/10/20 12:45:20;;;;;;;11.20;6.90;;;22.30;99.50;;;;;;5037395;28;20750;-53
2021/10/20 12:47:49;;;;;;;13.73;7.30;;;22.10;99.70;;;;;;5034636;28;20585;-53
2021/10/20 12:50:21;;;;;;;5.13;4.73;;;21.90;99.90;;;;;;5039648;28;20495;-50
2021/10/20 12:52:49;;;;;;;6.00;5.10;;;21.80;99.90;;;;;;5038287;28;20450;-55
2021/10/20 12:55:18;;;;;;;5.40;4.90;;;21.80;99.90;;;;;;5034868;28;20441;-55